Hlavní strana
METAR-TAF:

METAR-TAF

Letiště :

Řím-Fiumicino, Itálie

Letiště Řím-Fiumicino

zeměpisná šířka: 41-48N, zeměpisná délka: 012-14E, výška: 2 m

Aktuální stav počasí

Zpráva byla vytvořena před 30 minutami, v 03:20 UTC
Severovýchodní vítr 3 kt
Teplota 9°C
Vlhkost vzduchu 76%
Tlak 1015 hPa
Viditelnost 10 km a více
Skoro jasno ve výšce 2500 ft

METAR: LIRF 230320Z 05003KT 9999 FEW025 09/05 Q1015 NOSIG

Čas: 04:50 (03:50 UTC)

Předpověď počasí

Zpráva byla vytvořena před 4 hodinami a 50 minutami, v 23:00 UTC
Předpověď platná od 23 v 00 UTC do 24 v 06 UTC
Severovýchodní vítr 8 kt
Viditelnost 10 km a více
Polojasno ve výšce 3000 ft
Změna
od 23 v 12 UTC do 23 v 14 UTC
Východojihovýchodní vítr 10 kt
Změna
od 23 v 20 UTC do 23 v 22 UTC
Severovýchodní vítr 7 kt

TAF: LIRF 222300Z 2300/2406 04008KT 9999 SCT030 BECMG 2312/2314 12010KT BECMG 2320/2322 04007KT

Stav a předpovědi počasí z více než 4 000 letišť (zprávy METAR a TAF).

Červené a žluté tečky na mapě představují dostupné meteorologické stanice.

Když kurzor umístíte na tečku, zobrazí se název stanice.

Pak kliknutím zobrazíte stav a předpověď počasí.

Chcete-li změnit mapu, kliknutím na zelené tlačítko se znaménkem +mapu přiblížíte, kliknutím na zelené tlačítko se znaménkem – mapu oddálíte a kliknutím na zelené šipky přejdete na sousední mapy.


METAR-TAF: